Time;durP1;ratioP1;P1;durP2;ratioP2;P2;SDS_P1;SDS_P2;PMS_P1;PMS_P2;Temp;Humidity;BMP_temperature;BMP_pressure;BME280_temperature;BME280_humidity;BME280_pressure;Samples;Min_cycle;Max_cycle;Signal;HPM_P1;HPM_P2
2022/09/27 00:01:37;;;;;;;4.53;4.13;;;11.00;99.90;;;;;;5075818;28;20179;-89
2022/09/27 00:04:02;;;;;;;5.82;2.75;;;10.50;99.90;;;;;;5075295;28;20182;-90
2022/09/27 00:06:31;;;;;;;2.80;2.50;;;10.50;99.90;;;;;;5076043;28;20191;-90
2022/09/27 00:08:58;;;;;;;3.88;3.08;;;10.50;99.90;;;;;;5075409;28;20175;-89
2022/09/27 00:11:33;;;;;;;5.32;3.42;;;11.00;99.90;;;;;;5075847;28;20263;-89
2022/09/27 00:14:00;;;;;;;6.85;2.92;;;10.50;99.90;;;;;;5075295;28;20197;-90
2022/09/27 00:16:31;;;;;;;5.68;3.75;;;10.40;99.90;;;;;;5057100;28;20317;-89
2022/09/27 00:19:03;;;;;;;2.67;2.20;;;10.40;99.90;;;;;;5075305;28;20270;-90
2022/09/27 00:21:29;;;;;;;5.38;3.47;;;10.40;99.90;;;;;;5075263;28;20207;-89
2022/09/27 00:23:55;;;;;;;3.50;2.90;;;10.40;99.90;;;;;;5074817;28;20545;-89
2022/09/27 00:26:21;;;;;;;9.43;5.68;;;10.40;99.90;;;;;;5075147;28;20183;-89
2022/09/27 00:28:47;;;;;;;10.90;5.75;;;10.40;99.90;;;;;;5075300;28;20175;-86
2022/09/27 00:31:19;;;;;;;12.60;5.85;;;11.00;99.90;;;;;;5075745;28;20260;-89
2022/09/27 00:33:49;;;;;;;4.90;3.75;;;10.50;99.90;;;;;;5075349;28;20533;-91
2022/09/27 00:36:16;;;;;;;1.98;1.77;;;10.30;99.90;;;;;;5075877;28;20199;-89
2022/09/27 00:38:41;;;;;;;1.83;1.70;;;10.20;99.90;;;;;;5075280;28;20176;-89
2022/09/27 00:41:17;;;;;;;2.35;2.00;;;10.20;99.90;;;;;;5074928;28;20277;-89
2022/09/27 00:43:52;;;;;;;1.63;1.50;;;10.10;99.90;;;;;;5075326;28;20166;-89
2022/09/27 00:46:26;;;;;;;2.83;2.47;;;10.00;99.90;;;;;;5075147;28;20573;-89
2022/09/27 00:49:19;;;;;;;4.43;3.42;;;10.00;99.90;;;;;;5074800;28;20623;-89
2022/09/27 00:51:48;;;;;;;1.58;1.45;;;10.00;99.90;;;;;;5074584;28;20163;-89
2022/09/27 00:54:16;;;;;;;2.42;2.15;;;10.80;99.90;;;;;;5074549;28;20180;-89
2022/09/27 00:56:43;;;;;;;2.40;2.03;;;9.90;99.90;;;;;;5074795;28;20701;-89
2022/09/27 00:59:22;;;;;;;2.35;1.92;;;9.90;99.90;;;;;;5074400;28;20643;-89
2022/09/27 01:01:48;;;;;;;2.15;1.88;;;9.90;99.90;;;;;;5075431;28;20159;-90
2022/09/27 01:04:21;;;;;;;2.05;1.77;;;9.90;99.90;;;;;;5056558;28;20262;-90
2022/09/27 01:06:47;;;;;;;3.87;3.37;;;10.40;99.90;;;;;;5074840;28;20217;-89
2022/09/27 01:09:12;;;;;;;1.88;1.77;;;9.90;99.90;;;;;;5056249;28;20978;-89
2022/09/27 01:11:43;;;;;;;1.67;1.58;;;9.90;99.90;;;;;;5074855;28;20175;-89
2022/09/27 01:14:21;;;;;;;1.77;1.67;;;9.90;99.90;;;;;;5074191;28;20182;-89
2022/09/27 01:17:00;;;;;;;1.63;1.53;;;10.00;99.90;;;;;;5056280;28;20567;-90
2022/09/27 01:19:26;;;;;;;1.77;1.10;;;10.70;99.90;;;;;;5058644;28;20511;-89
2022/09/27 01:22:40;;;;;;;1.33;1.25;;;10.30;99.90;;;;;;5059109;28;20240;-89
2022/09/27 01:25:09;;;;;;;2.10;1.92;;;9.90;99.90;;;;;;5052773;28;20214;-88
2022/09/27 01:28:04;;;;;;;1.90;1.67;;;9.80;99.90;;;;;;5074155;28;20182;-89
2022/09/27 01:30:52;;;;;;;2.20;2.00;;;9.80;99.90;;;;;;5074359;28;20217;-89
2022/09/27 01:33:46;;;;;;;1.67;1.58;;;9.80;99.90;;;;;;5073868;28;20170;-88
2022/09/27 01:36:24;;;;;;;1.40;1.30;;;9.80;99.90;;;;;;5080592;28;20217;-88
2022/09/27 01:39:45;;;;;;;2.13;1.93;;;9.80;99.90;;;;;;5077189;28;20493;-88
2022/09/27 01:42:30;;;;;;;2.00;1.80;;;9.80;99.90;;;;;;4972907;28;20266;-88
2022/09/27 01:45:22;;;;;;;1.57;1.30;;;9.80;99.90;;;;;;4973477;28;20178;-89
2022/09/27 01:48:00;;;;;;;1.87;1.70;;;9.80;99.90;;;;;;5063755;28;20244;-89
2022/09/27 01:50:36;;;;;;;3.10;1.58;;;9.80;99.90;;;;;;5074189;28;20616;-89
2022/09/27 01:53:10;;;;;;;2.30;2.10;;;9.80;99.90;;;;;;5073425;28;20159;-88
2022/09/27 01:55:37;;;;;;;1.60;1.50;;;9.80;99.90;;;;;;5073537;28;20631;-89
2022/09/27 01:58:15;;;;;;;2.37;1.93;;;9.80;99.90;;;;;;5055844;28;20184;-88
2022/09/27 02:00:45;;;;;;;2.97;1.90;;;9.80;99.90;;;;;;5073931;28;20558;-89
2022/09/27 02:03:19;;;;;;;2.17;1.83;;;9.80;99.90;;;;;;5072413;28;20160;-89
2022/09/27 02:05:55;;;;;;;1.92;1.73;;;9.70;99.90;;;;;;5073544;28;20246;-89
2022/09/27 02:08:28;;;;;;;2.53;1.67;;;9.70;99.90;;;;;;5073493;28;20163;-90
2022/09/27 02:10:57;;;;;;;3.53;2.60;;;9.70;99.90;;;;;;5073846;28;20265;-89
2022/09/27 02:13:46;;;;;;;2.00;1.87;;;10.00;99.90;;;;;;5055480;28;20265;-89
2022/09/27 02:16:30;;;;;;;1.05;1.05;;;9.70;99.90;;;;;;5059491;28;20273;-89
2022/09/27 02:19:39;;;;;;;2.57;1.70;;;9.70;99.90;;;;;;5073774;28;20229;-89
2022/09/27 02:22:23;;;;;;;1.88;1.67;;;9.70;99.90;;;;;;5055590;28;20177;-87
2022/09/27 02:25:05;;;;;;;1.13;1.13;;;9.70;99.90;;;;;;5073957;28;20167;-88
2022/09/27 02:27:34;;;;;;;2.07;1.87;;;10.10;99.90;;;;;;5055778;28;20262;-90
2022/09/27 02:30:10;;;;;;;2.47;1.70;;;9.60;99.90;;;;;;5073599;28;20772;-90
2022/09/27 02:32:37;;;;;;;2.28;1.75;;;9.60;99.90;;;;;;5073519;28;20191;-89
2022/09/27 02:35:33;;;;;;;2.60;1.90;;;9.80;99.90;;;;;;5055529;28;20736;-89
2022/09/27 02:38:00;;;;;;;1.33;1.20;;;9.60;99.90;;;;;;5054188;28;20183;-88
2022/09/27 02:40:31;;;;;;;2.10;1.90;;;9.70;99.90;;;;;;5073367;28;20186;-88
2022/09/27 02:42:58;;;;;;;1.60;1.50;;;9.70;99.90;;;;;;5073612;28;20162;-89
2022/09/27 02:45:33;;;;;;;4.93;2.47;;;9.80;99.90;;;;;;5073268;28;20182;-88
2022/09/27 02:48:08;;;;;;;2.27;2.10;;;9.70;99.90;;;;;;5073160;28;20163;-89
2022/09/27 02:50:55;;;;;;;2.47;2.13;;;9.70;99.90;;;;;;5075438;28;20182;-89
2022/09/27 02:53:28;;;;;;;3.40;3.00;;;9.70;99.90;;;;;;5072176;28;20192;-87
2022/09/27 02:56:15;;;;;;;2.17;1.67;;;10.20;99.90;;;;;;5066480;28;20206;-88
2022/09/27 02:58:52;;;;;;;1.95;1.85;;;9.70;99.90;;;;;;5075170;28;20222;-88
2022/09/27 03:01:38;;;;;;;2.00;1.90;;;9.70;99.90;;;;;;5082547;28;20182;-86
2022/09/27 03:04:22;;;;;;;1.48;1.38;;;9.70;99.90;;;;;;5087635;28;20156;-87
2022/09/27 03:06:50;;;;;;;1.38;1.33;;;9.70;99.90;;;;;;5077926;28;20182;-86
2022/09/27 03:09:20;;;;;;;2.40;1.65;;;9.70;99.90;;;;;;5077868;28;20174;-87
2022/09/27 03:11:46;;;;;;;2.67;1.85;;;9.70;99.90;;;;;;5073706;28;20172;-87
2022/09/27 03:14:12;;;;;;;2.77;2.57;;;9.60;99.90;;;;;;5080565;28;20199;-86
2022/09/27 03:16:37;;;;;;;2.30;1.87;;;9.60;99.90;;;;;;5086510;28;20214;-87
2022/09/27 03:19:03;;;;;;;1.67;1.58;;;9.60;99.90;;;;;;5085656;28;20175;-87
2022/09/27 03:21:29;;;;;;;2.03;1.92;;;9.50;99.90;;;;;;5089697;28;20164;-86
2022/09/27 03:23:55;;;;;;;2.17;2.07;;;9.60;99.90;;;;;;5076919;28;20184;-87
2022/09/27 03:26:21;;;;;;;2.30;1.75;;;9.90;99.90;;;;;;5072431;28;20494;-87
2022/09/27 03:28:46;;;;;;;2.07;1.97;;;9.50;99.90;;;;;;5070477;28;20684;-88
2022/09/27 03:31:13;;;;;;;2.27;2.07;;;9.60;99.90;;;;;;5046903;28;20191;-86
2022/09/27 03:33:39;;;;;;;1.52;1.42;;;9.70;99.90;;;;;;5066250;28;20176;-87
2022/09/27 03:36:05;;;;;;;1.30;1.20;;;9.50;99.90;;;;;;5064043;28;20208;-87
2022/09/27 03:38:31;;;;;;;2.20;2.07;;;9.50;99.90;;;;;;5047754;28;20551;-91
2022/09/27 03:40:57;;;;;;;1.53;1.43;;;9.60;99.90;;;;;;5061315;28;20185;-89
2022/09/27 03:43:23;;;;;;;11.17;3.73;;;9.60;99.90;;;;;;5066524;28;20679;-88
2022/09/27 03:45:49;;;;;;;7.83;3.63;;;9.60;99.90;;;;;;5063029;28;20184;-88
2022/09/27 03:48:15;;;;;;;3.63;3.17;;;9.60;99.90;;;;;;5039273;28;20187;-91
2022/09/27 03:50:40;;;;;;;7.13;2.53;;;9.60;99.90;;;;;;5019897;28;20186;-89
2022/09/27 03:53:06;;;;;;;6.30;3.53;;;10.60;99.90;;;;;;5046517;28;20246;-90
2022/09/27 03:55:31;;;;;;;5.25;3.65;;;9.60;99.90;;;;;;5023665;28;20215;-88
2022/09/27 03:57:57;;;;;;;2.40;1.93;;;9.60;99.90;;;;;;5018482;28;20177;-87
2022/09/27 04:00:23;;;;;;;3.25;2.40;;;9.60;99.90;;;;;;5035862;28;20177;-87
2022/09/27 04:02:49;;;;;;;2.53;2.05;;;10.10;99.90;;;;;;5036330;28;20247;-88
2022/09/27 04:05:15;;;;;;;2.73;2.53;;;9.60;99.90;;;;;;5018768;28;20196;-87
2022/09/27 04:07:47;;;;;;;2.70;2.30;;;9.70;99.90;;;;;;5036867;28;20222;-87
2022/09/27 04:10:12;;;;;;;3.17;2.03;;;9.70;99.90;;;;;;5036681;28;20192;-87
2022/09/27 04:12:39;;;;;;;3.10;2.53;;;9.70;99.90;;;;;;5036350;28;20203;-88
2022/09/27 04:15:06;;;;;;;3.13;2.73;;;9.70;99.90;;;;;;5035833;28;20692;-88
2022/09/27 04:17:32;;;;;;;3.25;2.40;;;9.70;99.90;;;;;;5035728;28;20294;-87
2022/09/27 04:19:58;;;;;;;1.73;1.63;;;9.80;99.90;;;;;;5045729;28;20636;-88
2022/09/27 04:22:23;;;;;;;2.50;2.30;;;9.70;99.90;;;;;;5055779;28;20522;-90
2022/09/27 04:24:49;;;;;;;3.40;2.70;;;9.80;99.90;;;;;;5038382;28;20184;-90
2022/09/27 04:27:15;;;;;;;2.60;2.40;;;10.50;99.90;;;;;;5055497;28;20210;-90
2022/09/27 04:29:44;;;;;;;2.83;2.17;;;9.80;99.90;;;;;;5056043;28;20186;-91
2022/09/27 04:32:13;;;;;;;5.13;3.27;;;10.80;99.90;;;;;;5038238;28;20510;-90
2022/09/27 04:37:37;;;;;;;2.30;1.75;;;9.80;99.90;;;;;;5015205;28;20183;-91
2022/09/27 04:40:04;;;;;;;3.13;2.13;;;9.80;99.90;;;;;;5027436;28;20739;-88
2022/09/27 04:42:29;;;;;;;5.00;2.40;;;9.80;99.90;;;;;;5043933;28;20177;-89
2022/09/27 04:44:55;;;;;;;2.38;1.98;;;9.80;99.90;;;;;;5035996;28;20224;-89
2022/09/27 04:47:21;;;;;;;3.43;2.27;;;10.80;99.90;;;;;;5050504;28;20196;-89
2022/09/27 04:49:47;;;;;;;3.00;2.47;;;9.80;99.90;;;;;;5019722;28;20593;-90
2022/09/27 04:52:14;;;;;;;2.10;1.90;;;9.90;99.90;;;;;;5036278;28;20176;-90
2022/09/27 04:54:40;;;;;;;3.42;2.10;;;9.90;99.90;;;;;;5035443;28;20537;-91
2022/09/27 04:57:06;;;;;;;3.17;2.63;;;10.10;99.90;;;;;;5032795;28;20660;-89
2022/09/27 04:59:31;;;;;;;1.80;1.63;;;10.00;99.90;;;;;;5036348;28;20310;-91
2022/09/27 05:01:59;;;;;;;6.17;3.13;;;9.90;99.90;;;;;;5055218;28;20224;-89
2022/09/27 05:04:25;;;;;;;6.10;3.60;;;9.90;99.90;;;;;;5054603;28;20188;-86
2022/09/27 05:06:51;;;;;;;2.60;2.13;;;9.90;99.90;;;;;;5036557;28;20195;-87
2022/09/27 05:09:16;;;;;;;5.10;4.28;;;10.20;99.90;;;;;;5036748;28;20183;-88
2022/09/27 05:11:42;;;;;;;3.57;3.20;;;10.20;99.90;;;;;;5053422;28;20172;-92
2022/09/27 05:14:07;;;;;;;2.85;2.00;;;10.00;99.90;;;;;;5036181;28;20188;-87
2022/09/27 05:16:34;;;;;;;2.78;1.73;;;10.00;99.90;;;;;;5019084;28;20326;-89
2022/09/27 05:19:01;;;;;;;5.13;3.20;;;10.00;99.90;;;;;;5034638;28;20172;-93
2022/09/27 05:21:26;;;;;;;2.90;2.05;;;10.00;99.90;;;;;;5035008;28;20211;-90
2022/09/27 05:23:53;;;;;;;4.73;3.03;;;10.10;99.90;;;;;;5041641;28;20173;-89
2022/09/27 05:26:18;;;;;;;2.42;2.22;;;10.60;99.90;;;;;;5028959;28;20212;-88
2022/09/27 05:28:46;;;;;;;1.90;1.30;;;10.10;99.90;;;;;;5026516;28;20187;-91
2022/09/27 05:31:13;;;;;;;4.30;2.45;;;10.20;99.90;;;;;;5034806;28;20275;-89
2022/09/27 05:33:39;;;;;;;1.58;1.25;;;10.60;99.90;;;;;;5034766;28;20192;-91
2022/09/27 05:36:05;;;;;;;1.90;1.67;;;10.20;99.90;;;;;;5034807;28;20207;-90
2022/09/27 05:38:31;;;;;;;5.40;3.08;;;10.20;99.90;;;;;;5034408;28;20188;-90
2022/09/27 05:40:57;;;;;;;2.42;2.20;;;10.20;99.90;;;;;;5035312;28;20641;-89
2022/09/27 05:43:23;;;;;;;2.38;2.10;;;10.70;99.90;;;;;;5034478;28;20528;-90
2022/09/27 05:45:51;;;;;;;5.18;3.20;;;10.20;99.90;;;;;;5016683;28;20209;-90
2022/09/27 05:48:17;;;;;;;3.42;2.75;;;10.80;99.90;;;;;;5035492;28;20219;-89
2022/09/27 05:50:43;;;;;;;3.60;3.00;;;10.20;99.90;;;;;;5035318;28;20736;-89
2022/09/27 05:53:10;;;;;;;2.72;2.53;;;10.20;99.90;;;;;;5034417;28;20181;-91
2022/09/27 05:55:35;;;;;;;5.43;2.53;;;10.20;99.90;;;;;;5033895;28;20299;-90
2022/09/27 05:58:03;;;;;;;2.77;2.50;;;10.20;99.90;;;;;;5034172;28;20717;-90
2022/09/27 06:00:30;;;;;;;3.10;2.50;;;10.30;99.90;;;;;;5035830;28;20176;-91
2022/09/27 06:02:57;;;;;;;2.10;1.92;;;10.30;99.90;;;;;;5063589;28;20184;-90
2022/09/27 06:05:25;;;;;;;2.25;1.95;;;10.40;99.90;;;;;;5061501;28;20180;-90
2022/09/27 06:07:51;;;;;;;3.65;2.70;;;10.20;99.90;;;;;;5061800;28;20183;-90
2022/09/27 06:10:18;;;;;;;1.45;1.35;;;10.20;99.90;;;;;;5062234;28;20632;-90
2022/09/27 06:12:45;;;;;;;2.67;2.45;;;10.20;99.90;;;;;;5063264;28;20210;-89
2022/09/27 06:15:11;;;;;;;1.77;1.67;;;10.60;99.90;;;;;;5063371;28;20289;-90
2022/09/27 06:17:36;;;;;;;1.52;1.42;;;10.30;99.90;;;;;;5060948;28;20219;-90
2022/09/27 06:20:03;;;;;;;1.58;1.48;;;10.30;99.90;;;;;;5061098;28;20187;-90
2022/09/27 06:22:29;;;;;;;1.60;1.50;;;10.20;99.90;;;;;;5044167;28;20184;-91
2022/09/27 06:24:54;;;;;;;3.53;1.90;;;10.20;99.90;;;;;;5061379;28;20293;-92
2022/09/27 06:27:20;;;;;;;3.05;2.03;;;10.20;99.90;;;;;;5063111;28;20265;-91
2022/09/27 06:29:45;;;;;;;2.85;1.70;;;10.30;99.90;;;;;;5026877;28;20200;-90
2022/09/27 06:32:11;;;;;;;1.95;1.85;;;10.80;99.90;;;;;;5061590;28;20179;-90
2022/09/27 06:34:37;;;;;;;2.25;1.92;;;10.30;99.90;;;;;;5062090;28;20216;-90
2022/09/27 06:37:02;;;;;;;1.70;1.60;;;10.30;99.90;;;;;;5061052;28;20183;-91
2022/09/27 06:39:28;;;;;;;1.40;1.30;;;10.40;99.90;;;;;;5066240;28;20195;-88
2022/09/27 06:41:58;;;;;;;1.90;1.75;;;10.70;99.90;;;;;;5049052;28;20184;-89
2022/09/27 06:44:24;;;;;;;2.55;1.83;;;10.40;99.90;;;;;;5054381;28;20168;-89
2022/09/27 06:46:51;;;;;;;1.95;1.75;;;10.50;99.90;;;;;;5041411;28;20180;-89
2022/09/27 06:49:18;;;;;;;2.65;2.33;;;10.60;99.90;;;;;;5051296;28;20179;-88
2022/09/27 06:51:44;;;;;;;2.47;2.28;;;10.70;99.90;;;;;;5051723;28;20270;-88
2022/09/27 06:54:10;;;;;;;3.10;2.83;;;10.80;99.90;;;;;;5051927;28;20226;-89
2022/09/27 06:56:36;;;;;;;2.55;1.67;;;11.20;99.90;;;;;;5033965;28;20247;-90
2022/09/27 07:01:48;;;;;;;1.90;1.65;;;10.80;99.90;;;;;;5011107;28;20587;-89
2022/09/27 07:04:15;;;;;;;1.42;1.33;;;10.80;99.90;;;;;;5034524;28;20176;-89
2022/09/27 07:06:40;;;;;;;3.90;2.67;;;10.90;99.90;;;;;;5051868;28;20176;-89
2022/09/27 07:09:06;;;;;;;2.83;2.47;;;10.90;99.90;;;;;;5050741;28;20195;-88
2022/09/27 07:11:35;;;;;;;3.55;3.22;;;11.00;99.90;;;;;;5040523;28;20187;-88
2022/09/27 07:14:03;;;;;;;4.05;3.65;;;11.00;99.90;;;;;;5041720;28;20186;-89
2022/09/27 07:16:30;;;;;;;2.78;2.03;;;11.10;99.90;;;;;;5042543;28;20236;-89
2022/09/27 07:18:56;;;;;;;2.67;1.90;;;11.20;99.90;;;;;;5031715;28;20432;-87
2022/09/27 07:21:22;;;;;;;3.38;2.15;;;11.20;99.90;;;;;;5051765;28;20191;-89
2022/09/27 07:23:48;;;;;;;2.95;1.77;;;11.30;99.90;;;;;;5051395;28;20219;-87
2022/09/27 07:26:14;;;;;;;2.25;2.05;;;11.40;99.90;;;;;;5048972;28;20211;-89
2022/09/27 07:28:40;;;;;;;2.28;1.67;;;11.50;99.90;;;;;;5034095;28;20597;-90
2022/09/27 07:31:07;;;;;;;2.90;2.55;;;11.60;99.90;;;;;;5051293;28;20652;-89
2022/09/27 07:33:34;;;;;;;4.00;2.92;;;12.60;99.90;;;;;;5051281;28;20167;-90
2022/09/27 07:35:59;;;;;;;2.72;2.45;;;11.80;99.90;;;;;;5050019;28;20305;-89
2022/09/27 07:38:25;;;;;;;2.47;2.20;;;11.90;99.90;;;;;;5035786;28;20203;-89
2022/09/27 07:40:51;;;;;;;3.63;2.28;;;12.00;99.90;;;;;;5059871;28;20504;-89
2022/09/27 07:43:18;;;;;;;2.50;1.60;;;12.00;99.90;;;;;;5060226;28;20188;-90
2022/09/27 07:45:44;;;;;;;2.72;2.22;;;12.10;99.90;;;;;;5020211;28;20199;-90
2022/09/27 07:48:12;;;;;;;2.53;2.30;;;12.20;99.90;;;;;;5034106;28;20176;-91
2022/09/27 07:50:38;;;;;;;1.55;1.45;;;12.20;99.90;;;;;;5035802;28;20187;-90
2022/09/27 07:53:04;;;;;;;2.00;1.90;;;12.20;99.90;;;;;;5035234;28;20208;-91
2022/09/27 07:55:30;;;;;;;2.50;1.98;;;12.30;99.90;;;;;;5052960;28;20294;-92
2022/09/27 07:58:04;;;;;;;3.47;2.88;;;12.30;99.90;;;;;;5051540;28;20237;-90
2022/09/27 08:00:30;;;;;;;2.80;2.10;;;12.30;99.90;;;;;;5052145;28;20259;-90
2022/09/27 08:02:55;;;;;;;2.30;1.98;;;12.40;99.90;;;;;;5037500;28;20274;-91
2022/09/27 08:05:21;;;;;;;2.08;1.88;;;12.50;99.90;;;;;;5038792;28;20199;-90
2022/09/27 08:07:46;;;;;;;4.30;1.65;;;12.50;99.90;;;;;;5055930;28;20250;-91
2022/09/27 08:10:12;;;;;;;1.42;1.33;;;12.60;99.90;;;;;;5018975;28;20239;-91
2022/09/27 08:12:38;;;;;;;1.70;1.42;;;12.90;99.90;;;;;;5035471;28;20230;-92
2022/09/27 08:15:04;;;;;;;1.75;1.63;;;12.70;99.90;;;;;;5035361;28;20207;-93
2022/09/27 08:17:33;;;;;;;2.67;1.80;;;12.60;99.90;;;;;;5035634;28;20255;-92
2022/09/27 08:20:02;;;;;;;1.92;1.73;;;12.70;99.90;;;;;;5035117;28;20247;-91
2022/09/27 08:22:28;;;;;;;3.33;2.10;;;12.60;99.90;;;;;;5036598;28;20276;-91
2022/09/27 08:24:54;;;;;;;1.88;1.38;;;12.70;99.90;;;;;;5018415;28;20317;-91
2022/09/27 08:27:19;;;;;;;2.33;2.03;;;12.70;99.90;;;;;;5017686;28;20185;-92
2022/09/27 08:29:46;;;;;;;2.55;2.35;;;12.80;99.90;;;;;;5035871;28;20176;-92
2022/09/27 08:32:12;;;;;;;1.92;1.77;;;12.90;99.90;;;;;;5035851;28;20191;-92
2022/09/27 08:34:38;;;;;;;1.50;1.05;;;13.00;99.90;;;;;;5054611;28;20176;-92
2022/09/27 08:37:04;;;;;;;1.80;1.70;;;13.10;99.90;;;;;;5012416;28;20183;-90
2022/09/27 08:39:30;;;;;;;1.55;1.45;;;13.00;99.90;;;;;;5025441;28;20265;-89
2022/09/27 08:42:01;;;;;;;1.15;1.05;;;13.00;99.90;;;;;;5046537;28;20184;-89
2022/09/27 08:44:49;;;;;;;2.75;2.42;;;13.00;99.90;;;;;;5058513;28;20160;-93
2022/09/27 08:47:16;;;;;;;2.28;1.33;;;13.00;99.90;;;;;;5046299;28;20617;-93
2022/09/27 08:49:52;;;;;;;1.67;1.50;;;12.90;99.90;;;;;;5029475;28;20203;-91
2022/09/27 08:52:28;;;;;;;1.52;1.42;;;12.90;99.90;;;;;;5056521;28;20220;-92
2022/09/27 08:54:56;;;;;;;1.58;1.48;;;12.90;99.90;;;;;;5035885;28;20234;-90
2022/09/27 08:57:23;;;;;;;1.83;1.73;;;12.90;99.90;;;;;;5043058;28;20208;-90
2022/09/27 09:00:05;;;;;;;2.20;1.88;;;12.90;99.90;;;;;;5047600;28;20255;-90
2022/09/27 09:02:32;;;;;;;1.58;1.48;;;12.80;99.90;;;;;;5066820;28;20172;-90
2022/09/27 09:05:12;;;;;;;2.47;2.28;;;12.80;99.90;;;;;;5072221;28;20182;-90
2022/09/27 09:07:49;;;;;;;2.28;2.10;;;12.80;99.90;;;;;;5077717;28;20216;-91
2022/09/27 09:13:59;;;;;;;1.45;1.33;;;12.90;99.90;;;;;;5075781;28;20195;-91
2022/09/27 09:16:52;;;;;;;1.58;1.38;;;13.00;99.90;;;;;;5078880;28;20254;-91
2022/09/27 09:19:52;;;;;;;3.05;1.92;;;13.00;99.90;;;;;;5079086;28;20179;-90
2022/09/27 09:22:27;;;;;;;1.70;1.33;;;13.10;99.90;;;;;;5075072;28;20227;-91
2022/09/27 09:25:12;;;;;;;1.83;1.50;;;13.20;99.90;;;;;;5064284;28;20171;-89
2022/09/27 09:28:00;;;;;;;2.03;1.63;;;13.40;99.90;;;;;;5059080;28;20156;-90
2022/09/27 09:30:53;;;;;;;3.42;2.17;;;13.70;99.90;;;;;;5077812;28;20167;-90
2022/09/27 09:33:34;;;;;;;2.35;1.65;;;13.80;99.90;;;;;;5051117;28;20180;-92
2022/09/27 09:36:08;;;;;;;1.85;1.73;;;13.80;99.90;;;;;;5055839;28;20257;-92
2022/09/27 09:38:49;;;;;;;2.92;2.15;;;13.50;99.90;;;;;;5056363;28;20226;-93
2022/09/27 09:41:50;;;;;;;1.83;1.67;;;13.70;99.90;;;;;;5041611;28;20172;-90
2022/09/27 09:44:16;;;;;;;3.33;1.73;;;13.60;99.90;;;;;;5055536;28;20289;-92
2022/09/27 09:46:46;;;;;;;2.03;1.65;;;13.60;99.90;;;;;;5055636;28;20184;-92
2022/09/27 09:49:25;;;;;;;2.60;2.40;;;13.60;99.90;;;;;;5056852;28;20182;-92
2022/09/27 09:51:55;;;;;;;2.08;1.20;;;13.60;99.90;;;;;;5053729;28;20174;-93
2022/09/27 09:54:39;;;;;;;1.95;1.85;;;13.60;99.90;;;;;;5037784;28;20636;-93
2022/09/27 09:57:36;;;;;;;1.10;1.00;;;13.50;99.90;;;;;;5042125;28;20176;-92
2022/09/27 10:00:12;;;;;;;4.07;2.13;;;13.50;99.90;;;;;;5034131;28;20617;-93
2022/09/27 10:02:41;;;;;;;1.42;1.30;;;13.30;99.90;;;;;;5051716;28;20172;-92
2022/09/27 10:05:09;;;;;;;2.25;1.90;;;13.30;99.90;;;;;;5054290;28;20180;-90
2022/09/27 10:07:37;;;;;;;2.47;1.80;;;13.30;99.90;;;;;;5036376;28;20691;-92
2022/09/27 10:10:05;;;;;;;1.52;1.40;;;13.30;99.90;;;;;;5054585;28;20175;-92
2022/09/27 10:12:31;;;;;;;2.30;1.90;;;13.30;99.90;;;;;;5053410;28;20245;-92
2022/09/27 10:14:59;;;;;;;2.60;1.65;;;13.30;99.90;;;;;;5053292;28;20207;-92
2022/09/27 10:17:34;;;;;;;2.00;1.85;;;13.40;99.90;;;;;;5054736;28;20228;-90
2022/09/27 10:20:02;;;;;;;1.88;1.67;;;13.40;99.90;;;;;;5062866;28;20163;-92
2022/09/27 10:22:54;;;;;;;1.20;1.08;;;13.40;99.90;;;;;;5059344;28;20188;-91
2022/09/27 10:25:20;;;;;;;2.90;1.73;;;13.40;99.90;;;;;;5036931;28;20164;-91
2022/09/27 10:27:54;;;;;;;2.22;1.75;;;13.40;99.90;;;;;;5053632;28;20182;-91
2022/09/27 10:30:28;;;;;;;1.63;1.52;;;13.50;99.90;;;;;;5051902;28;20167;-90
2022/09/27 10:32:59;;;;;;;1.65;1.55;;;13.60;99.90;;;;;;5053564;28;20180;-89
2022/09/27 10:35:28;;;;;;;1.90;1.63;;;13.60;99.90;;;;;;5052952;28;20200;-91
2022/09/27 10:38:17;;;;;;;2.42;2.05;;;13.70;99.90;;;;;;5052801;28;20184;-90
2022/09/27 10:40:43;;;;;;;1.23;1.17;;;13.60;99.90;;;;;;5043765;28;20192;-90
2022/09/27 10:43:31;;;;;;;1.77;1.65;;;13.70;99.90;;;;;;5035150;28;20176;-91
2022/09/27 10:46:08;;;;;;;1.48;1.38;;;13.80;99.90;;;;;;5052447;28;20255;-91
2022/09/27 10:48:34;;;;;;;1.80;1.30;;;13.80;99.90;;;;;;5035303;28;20381;-91
2022/09/27 10:51:06;;;;;;;1.23;1.13;;;13.80;99.90;;;;;;5032610;28;20172;-92
2022/09/27 10:53:35;;;;;;;4.32;1.33;;;13.90;99.90;;;;;;5053477;28;20531;-92
2022/09/27 10:56:01;;;;;;;3.08;1.70;;;13.90;99.90;;;;;;5042193;28;20219;-93
2022/09/27 10:58:33;;;;;;;1.33;1.23;;;13.80;99.90;;;;;;5053321;28;20183;-92
2022/09/27 11:01:02;;;;;;;1.45;1.20;;;13.80;99.90;;;;;;5044674;28;20163;-92
2022/09/27 11:03:30;;;;;;;1.65;1.38;;;13.70;99.90;;;;;;5026998;28;20263;-91
2022/09/27 11:05:58;;;;;;;2.13;1.73;;;13.80;99.90;;;;;;5038089;28;20184;-92
2022/09/27 11:08:32;;;;;;;2.00;1.33;;;13.70;99.90;;;;;;5045749;28;20185;-90
2022/09/27 11:11:16;;;;;;;2.15;1.85;;;13.70;99.90;;;;;;5059815;28;20235;-91
2022/09/27 11:14:03;;;;;;;1.83;1.65;;;13.70;99.90;;;;;;5034706;28;20176;-91
2022/09/27 11:16:50;;;;;;;1.98;1.80;;;13.70;99.90;;;;;;5043830;28;20317;-91
2022/09/27 11:19:47;;;;;;;2.47;1.55;;;13.80;99.90;;;;;;5050400;28;20169;-92
2022/09/27 11:22:15;;;;;;;2.22;1.77;;;14.00;99.90;;;;;;5059646;28;20668;-92
2022/09/27 11:25:02;;;;;;;2.00;1.77;;;14.00;99.90;;;;;;5053897;28;20172;-91
2022/09/27 11:27:40;;;;;;;1.58;1.48;;;14.10;99.90;;;;;;5039056;28;20172;-92
2022/09/27 11:30:13;;;;;;;4.68;2.55;;;14.20;99.90;;;;;;5024640;28;20179;-92
2022/09/27 11:33:17;;;;;;;2.90;2.05;;;14.10;99.90;;;;;;5049131;28;20602;-90
2022/09/27 11:36:16;;;;;;;1.85;1.65;;;14.20;99.90;;;;;;5034602;28;20309;-93
2022/09/27 11:39:03;;;;;;;3.70;2.28;;;14.20;99.90;;;;;;5036081;28;20555;-91
2022/09/27 11:42:16;;;;;;;1.80;1.63;;;14.30;99.90;;;;;;5056298;28;20156;-92
2022/09/27 11:45:01;;;;;;;1.95;1.48;;;14.30;99.90;;;;;;4956212;29;20206;-92
2022/09/27 11:47:41;;;;;;;2.70;2.10;;;14.40;99.90;;;;;;4940339;29;20564;-94
2022/09/27 11:50:31;;;;;;;2.20;2.00;;;14.50;99.90;;;;;;5031131;28;20192;-92
2022/09/27 11:53:35;;;;;;;2.58;2.05;;;14.60;99.90;;;;;;5037899;28;20184;-94
2022/09/27 11:56:32;;;;;;;1.55;1.42;;;14.40;99.90;;;;;;5054573;28;20191;-92
2022/09/27 11:59:15;;;;;;;3.85;2.47;;;14.50;99.90;;;;;;5050507;28;20223;-93
2022/09/27 12:01:59;;;;;;;2.20;1.83;;;14.50;99.90;;;;;;5062165;28;20260;-92
2022/09/27 12:04:55;;;;;;;2.25;1.65;;;14.60;99.90;;;;;;5058314;28;20172;-91
2022/09/27 12:07:36;;;;;;;1.98;1.42;;;14.80;99.90;;;;;;5054553;28;20165;-90
2022/09/27 12:10:09;;;;;;;1.88;1.65;;;14.90;99.90;;;;;;5053348;28;20258;-90
2022/09/27 12:12:37;;;;;;;2.05;1.83;;;15.10;99.90;;;;;;5052291;28;20294;-89
2022/09/27 12:15:20;;;;;;;2.30;1.88;;;15.20;99.90;;;;;;5054115;28;20208;-89
2022/09/27 12:17:49;;;;;;;1.88;1.45;;;15.40;99.90;;;;;;5055656;28;20216;-89
2022/09/27 12:20:26;;;;;;;1.55;1.40;;;15.50;99.90;;;;;;5046343;28;20200;-89
2022/09/27 12:23:01;;;;;;;1.42;1.30;;;15.50;99.90;;;;;;5050838;28;20160;-89
2022/09/27 12:25:34;;;;;;;1.95;1.75;;;15.50;99.90;;;;;;5048747;28;20167;-88
2022/09/27 12:28:05;;;;;;;2.65;1.83;;;15.50;99.90;;;;;;5052935;28;20248;-89
2022/09/27 12:30:33;;;;;;;2.30;1.60;;;15.40;99.90;;;;;;5041335;28;20176;-88
2022/09/27 12:33:33;;;;;;;1.95;1.52;;;15.40;99.90;;;;;;5044975;28;20207;-89
2022/09/27 12:36:05;;;;;;;1.65;1.55;;;15.40;99.90;;;;;;5041990;28;20212;-91
2022/09/27 12:38:38;;;;;;;1.90;1.52;;;15.40;99.90;;;;;;5048251;28;20183;-89
2022/09/27 12:41:07;;;;;;;2.60;1.98;;;15.50;99.90;;;;;;5056020;28;20191;-91
2022/09/27 12:43:32;;;;;;;3.40;1.73;;;15.60;99.90;;;;;;5038377;28;20176;-90
2022/09/27 12:46:24;;;;;;;2.75;1.77;;;15.60;99.90;;;;;;5038804;28;20719;-91
2022/09/27 12:49:10;;;;;;;1.98;0.95;;;15.80;99.90;;;;;;5055198;28;20179;-90
2022/09/27 12:51:50;;;;;;;1.98;1.70;;;15.90;99.90;;;;;;5005475;28;20187;-90
2022/09/27 12:54:33;;;;;;;2.38;1.50;;;16.00;99.90;;;;;;5057308;28;20217;-91
2022/09/27 12:57:26;;;;;;;1.48;1.10;;;16.30;99.90;;;;;;5038573;28;20214;-90
2022/09/27 13:00:01;;;;;;;2.00;1.67;;;16.50;99.90;;;;;;5054227;28;20229;-90
2022/09/27 13:02:32;;;;;;;2.05;1.40;;;16.50;99.90;;;;;;5054807;28;20160;-90
2022/09/27 13:05:06;;;;;;;4.03;2.08;;;16.50;99.90;;;;;;5055038;28;20183;-91
2022/09/27 13:07:56;;;;;;;3.55;1.90;;;16.80;99.90;;;;;;5055706;28;20214;-90
2022/09/27 13:10:25;;;;;;;2.45;1.70;;;17.40;99.90;;;;;;5057003;28;20202;-90
2022/09/27 13:12:53;;;;;;;2.25;1.25;;;17.90;99.90;;;;;;5037223;28;20176;-90
2022/09/27 13:15:32;;;;;;;1.90;1.30;;;18.40;99.90;;;;;;5055378;28;20211;-91
2022/09/27 13:18:04;;;;;;;1.83;1.50;;;18.90;99.90;;;;;;5054264;28;20250;-90
2022/09/27 13:20:36;;;;;;;2.78;1.80;;;19.20;99.90;;;;;;5055452;28;20636;-90
2022/09/27 13:23:20;;;;;;;1.90;1.65;;;18.80;99.90;;;;;;5055565;28;20245;-90
2022/09/27 13:25:59;;;;;;;2.47;1.65;;;18.40;99.90;;;;;;5054650;28;20629;-88
2022/09/27 13:28:30;;;;;;;1.80;1.52;;;18.00;99.90;;;;;;5054840;28;20518;-88